Porthleven, United Kingdom
Current Conditions -  °F | °C
As of 11:50 PM on Wednesday 22 Oct 2014 (Local Time) from EGDR Reporting Station
Haze Haze  
Wind Chill: 55°   Ceiling: 2800
Heat Index: 55°   Visibility: 6mi
Dew Point: 50°   Wind: 14mph
Humidity: 82%   Direction: 220°SW
Pressure: 30.24"   Gusts: NA
Location:  50.09°N, 5.32°W
Report Text: EGDR 222250Z 22012KT 9999 HZ OVC028 13/10 Q1024 BLU
Loading
Personal Weather Stations






























Interactive Weather Map
Tropical Storm Tracking
New forecast layout! Learn more

10-Day Weather Forecast

Advertisements
Track Severe Weather on mobile